首页
METAR-TAF:

METAR-TAF

机场 :

廊曼国际机场

曼谷, 泰国

纬度: 13-54-45N, 经度: 100-36-24E, 海拔: 4米

当前天气观测

该预报发布于46分钟前的23:00 UTC
风速5节,风向西
温度 30°C
湿度 70%
气压 1007 hPa
能见度10公里或以上
少量云层高于2000英尺

METAR: VTBD 282300Z 26005KT 9999 FEW020 30/24 Q1007 NOSIG

时间: 06:46 (23:46 UTC)

预报

该预报发布于6小时和46分钟前的17:00 UTC
预报有效从28日的 18点(UTC)到 29日的 24点(UTC)
风速5节,风向西南
能见度10公里或以上
少量云层高于2000英尺
成为
从 28日的 20点(UTC)到 28日的 22点(UTC)
风速节,风向
成为
从 29日的 01点(UTC)到 29日的 03点(UTC)
风速5节,风向西南
短暂存在
从 29日的 09点(UTC)到 29日的 13点(UTC)
风速15节,风向多变
能見度: 4000
少量云层高于1800英尺, 积雨云.
散云层高于3500英尺
雷暴, 雨,

TAF: VTBD 281700Z 2818/2924 22005KT 9999 FEW020 BECMG 2820/2822 00000KT BECMG 2901/2903 22005KT TEMPO 2909/2913 VRB15KT 4000 TSRA FEW018CB SCT035

超过4000个机场的气象观测和天气预报(METAR&TAF报告)。

可查询的气象台以黄色和红色小点在地图上表示。

将鼠标移到小点上方,可查看气象台名称。

然后点击查看天气观测和预报。

如需切换地图:点击带黑十字的绿色按钮放大地图;点击带横线的绿色按钮缩小地图;或者点击绿色箭头查看邻近地区的地图。


METAR-TAF: